sensor_id;sensor_type;location;lat;lon;timestamp;P1;P2;P0
23240;PMS7003;11789;53.482;9.862;2022-11-15T00:00:03;68.67;52.33;31.67
23240;PMS7003;11789;53.482;9.862;2022-11-15T00:02:29;67.00;54.00;31.33
23240;PMS7003;11789;53.482;9.862;2022-11-15T00:04:54;64.00;51.00;30.33
23240;PMS7003;11789;53.482;9.862;2022-11-15T00:07:20;62.00;50.67;31.33
23240;PMS7003;11789;53.482;9.862;2022-11-15T00:09:45;62.00;51.00;31.33
23240;PMS7003;11789;53.482;9.862;2022-11-15T00:12:11;65.33;50.67;29.67
23240;PMS7003;11789;53.482;9.862;2022-11-15T00:14:36;69.00;53.00;31.67
23240;PMS7003;11789;53.482;9.862;2022-11-15T00:17:02;65.67;54.00;29.67
23240;PMS7003;11789;53.482;9.862;2022-11-15T00:19:27;61.00;49.00;29.00
23240;PMS7003;11789;53.482;9.862;2022-11-15T00:21:53;64.00;51.33;30.67
23240;PMS7003;11789;53.482;9.862;2022-11-15T00:24:18;63.33;51.00;30.00
23240;PMS7003;11789;53.482;9.862;2022-11-15T00:26:43;66.33;51.67;30.33
23240;PMS7003;11789;53.482;9.862;2022-11-15T00:29:09;64.33;51.33;30.67
23240;PMS7003;11789;53.482;9.862;2022-11-15T00:31:35;62.67;50.33;30.33
23240;PMS7003;11789;53.482;9.862;2022-11-15T00:34:00;60.00;47.33;31.00
23240;PMS7003;11789;53.482;9.862;2022-11-15T00:36:26;65.67;53.33;30.67
23240;PMS7003;11789;53.482;9.862;2022-11-15T00:38:51;63.00;48.33;29.67
23240;PMS7003;11789;53.482;9.862;2022-11-15T00:41:17;59.67;48.33;29.67
23240;PMS7003;11789;53.482;9.862;2022-11-15T00:43:42;64.67;51.33;30.00
23240;PMS7003;11789;53.482;9.862;2022-11-15T00:46:08;62.00;50.33;31.00
23240;PMS7003;11789;53.482;9.862;2022-11-15T00:48:35;62.67;51.00;30.00
23240;PMS7003;11789;53.482;9.862;2022-11-15T00:51:01;68.67;51.67;30.00
23240;PMS7003;11789;53.482;9.862;2022-11-15T00:53:26;61.33;49.00;30.00
23240;PMS7003;11789;53.482;9.862;2022-11-15T00:55:52;62.67;48.00;28.33
23240;PMS7003;11789;53.482;9.862;2022-11-15T00:58:18;61.67;48.67;30.00
23240;PMS7003;11789;53.482;9.862;2022-11-15T01:00:43;59.67;50.00;28.67
23240;PMS7003;11789;53.482;9.862;2022-11-15T01:03:09;62.67;48.67;30.00
23240;PMS7003;11789;53.482;9.862;2022-11-15T01:05:36;59.67;46.33;27.33
23240;PMS7003;11789;53.482;9.862;2022-11-15T01:08:02;63.33;50.00;27.33
23240;PMS7003;11789;53.482;9.862;2022-11-15T01:10:27;57.67;45.67;27.33
23240;PMS7003;11789;53.482;9.862;2022-11-15T01:12:53;59.33;46.67;28.67
23240;PMS7003;11789;53.482;9.862;2022-11-15T01:15:18;57.00;46.67;28.00
23240;PMS7003;11789;53.482;9.862;2022-11-15T01:17:44;53.00;44.00;26.33
23240;PMS7003;11789;53.482;9.862;2022-11-15T01:20:09;60.00;45.67;27.33
23240;PMS7003;11789;53.482;9.862;2022-11-15T01:22:35;56.67;47.00;27.33
23240;PMS7003;11789;53.482;9.862;2022-11-15T01:25:00;60.00;46.33;27.33
23240;PMS7003;11789;53.482;9.862;2022-11-15T01:27:26;61.00;48.67;26.67
23240;PMS7003;11789;53.482;9.862;2022-11-15T01:29:51;55.00;41.33;28.00
23240;PMS7003;11789;53.482;9.862;2022-11-15T01:32:17;54.67;45.00;27.33
23240;PMS7003;11789;53.482;9.862;2022-11-15T01:34:43;60.00;46.00;26.00
23240;PMS7003;11789;53.482;9.862;2022-11-15T01:37:08;57.67;45.00;26.00
23240;PMS7003;11789;53.482;9.862;2022-11-15T01:39:34;50.00;43.33;25.67
23240;PMS7003;11789;53.482;9.862;2022-11-15T01:41:59;54.00;45.00;27.33
23240;PMS7003;11789;53.482;9.862;2022-11-15T01:47:00;57.67;42.33;27.00
23240;PMS7003;11789;53.482;9.862;2022-11-15T01:49:30;50.33;40.00;25.00
23240;PMS7003;11789;53.482;9.862;2022-11-15T01:51:59;39.00;34.33;19.00
23240;PMS7003;11789;53.482;9.862;2022-11-15T01:54:32;52.67;42.67;26.00
23240;PMS7003;11789;53.482;9.862;2022-11-15T01:57:07;49.33;40.00;25.00
23240;PMS7003;11789;53.482;9.862;2022-11-15T01:59:39;54.67;44.67;26.00
23240;PMS7003;11789;53.482;9.862;2022-11-15T02:02:08;53.67;41.67;25.00
23240;PMS7003;11789;53.482;9.862;2022-11-15T02:04:35;48.00;39.67;25.00
23240;PMS7003;11789;53.482;9.862;2022-11-15T02:07:08;48.67;41.33;25.00
23240;PMS7003;11789;53.482;9.862;2022-11-15T02:09:37;53.67;43.33;26.33
23240;PMS7003;11789;53.482;9.862;2022-11-15T02:12:03;45.33;39.33;25.00
23240;PMS7003;11789;53.482;9.862;2022-11-15T02:14:30;55.67;45.00;26.33
23240;PMS7003;11789;53.482;9.862;2022-11-15T02:16:59;47.00;41.00;25.33
23240;PMS7003;11789;53.482;9.862;2022-11-15T02:22:14;42.67;38.33;24.67
23240;PMS7003;11789;53.482;9.862;2022-11-15T02:27:42;53.67;42.67;25.33
23240;PMS7003;11789;53.482;9.862;2022-11-15T02:33:46;59.00;44.00;26.33
23240;PMS7003;11789;53.482;9.862;2022-11-15T02:36:28;52.33;42.67;25.67
23240;PMS7003;11789;53.482;9.862;2022-11-15T02:39:18;54.33;43.00;25.33
23240;PMS7003;11789;53.482;9.862;2022-11-15T02:44:51;49.33;41.33;25.67
23240;PMS7003;11789;53.482;9.862;2022-11-15T02:47:20;50.33;42.00;26.00
23240;PMS7003;11789;53.482;9.862;2022-11-15T02:49:52;58.00;48.00;27.00
23240;PMS7003;11789;53.482;9.862;2022-11-15T02:52:20;54.67;45.00;27.00
23240;PMS7003;11789;53.482;9.862;2022-11-15T02:54:57;57.33;48.33;28.00
23240;PMS7003;11789;53.482;9.862;2022-11-15T02:57:54;59.00;46.00;28.33
23240;PMS7003;11789;53.482;9.862;2022-11-15T03:00:22;55.67;45.33;28.00
23240;PMS7003;11789;53.482;9.862;2022-11-15T03:03:02;57.33;47.33;28.00
23240;PMS7003;11789;53.482;9.862;2022-11-15T03:08:32;70.33;51.33;29.00
23240;PMS7003;11789;53.482;9.862;2022-11-15T03:11:12;58.33;47.33;28.67
23240;PMS7003;11789;53.482;9.862;2022-11-15T03:16:37;62.00;48.33;28.33
23240;PMS7003;11789;53.482;9.862;2022-11-15T03:19:09;59.67;46.33;30.67
23240;PMS7003;11789;53.482;9.862;2022-11-15T03:21:40;58.33;46.00;27.00
23240;PMS7003;11789;53.482;9.862;2022-11-15T03:24:07;65.33;51.00;29.33
23240;PMS7003;11789;53.482;9.862;2022-11-15T03:26:34;61.33;50.33;27.33
23240;PMS7003;11789;53.482;9.862;2022-11-15T03:29:18;60.00;47.67;27.33
23240;PMS7003;11789;53.482;9.862;2022-11-15T03:31:52;66.00;50.00;30.33
23240;PMS7003;11789;53.482;9.862;2022-11-15T03:34:25;59.00;46.33;28.33
23240;PMS7003;11789;53.482;9.862;2022-11-15T03:37:12;62.00;48.00;28.00
23240;PMS7003;11789;53.482;9.862;2022-11-15T03:39:40;62.33;48.33;27.00
23240;PMS7003;11789;53.482;9.862;2022-11-15T03:42:10;57.67;47.00;28.33
23240;PMS7003;11789;53.482;9.862;2022-11-15T03:47:24;62.33;49.33;27.00
23240;PMS7003;11789;53.482;9.862;2022-11-15T03:50:01;62.33;50.00;28.33
23240;PMS7003;11789;53.482;9.862;2022-11-15T03:52:33;59.33;48.33;27.33
23240;PMS7003;11789;53.482;9.862;2022-11-15T03:55:00;57.67;45.67;28.00
23240;PMS7003;11789;53.482;9.862;2022-11-15T03:57:28;50.33;40.00;23.67
23240;PMS7003;11789;53.482;9.862;2022-11-15T03:59:53;61.33;47.67;28.00
23240;PMS7003;11789;53.482;9.862;2022-11-15T04:02:19;62.33;48.33;28.33
23240;PMS7003;11789;53.482;9.862;2022-11-15T04:04:44;58.00;46.33;27.00
23240;PMS7003;11789;53.482;9.862;2022-11-15T04:07:13;62.67;47.00;27.33
23240;PMS7003;11789;53.482;9.862;2022-11-15T04:09:47;60.33;49.00;28.67
23240;PMS7003;11789;53.482;9.862;2022-11-15T04:12:38;58.67;47.67;28.33
23240;PMS7003;11789;53.482;9.862;2022-11-15T04:15:08;63.67;51.33;27.67
23240;PMS7003;11789;53.482;9.862;2022-11-15T04:17:49;54.33;44.33;26.00
23240;PMS7003;11789;53.482;9.862;2022-11-15T04:20:20;59.00;47.33;28.33
23240;PMS7003;11789;53.482;9.862;2022-11-15T04:23:09;61.00;48.33;28.00
23240;PMS7003;11789;53.482;9.862;2022-11-15T04:25:59;59.00;48.33;28.33
23240;PMS7003;11789;53.482;9.862;2022-11-15T04:28:26;58.67;48.00;28.00
23240;PMS7003;11789;53.482;9.862;2022-11-15T04:30:52;65.33;50.00;29.33
23240;PMS7003;11789;53.482;9.862;2022-11-15T04:33:18;60.67;48.00;27.00
23240;PMS7003;11789;53.482;9.862;2022-11-15T04:35:44;59.33;47.67;28.00
23240;PMS7003;11789;53.482;9.862;2022-11-15T04:38:38;61.67;47.00;28.00
23240;PMS7003;11789;53.482;9.862;2022-11-15T04:41:04;57.33;44.00;27.00
23240;PMS7003;11789;53.482;9.862;2022-11-15T04:43:29;56.33;47.00;28.00
23240;PMS7003;11789;53.482;9.862;2022-11-15T04:45:55;58.67;47.33;27.00
23240;PMS7003;11789;53.482;9.862;2022-11-15T04:48:20;62.00;47.00;27.00
23240;PMS7003;11789;53.482;9.862;2022-11-15T04:50:49;56.67;46.67;28.00
23240;PMS7003;11789;53.482;9.862;2022-11-15T04:56:05;56.67;45.67;27.00
23240;PMS7003;11789;53.482;9.862;2022-11-15T04:58:30;59.67;45.67;28.00
23240;PMS7003;11789;53.482;9.862;2022-11-15T05:00:56;56.00;44.00;26.67
23240;PMS7003;11789;53.482;9.862;2022-11-15T05:03:21;58.00;47.67;25.33
23240;PMS7003;11789;53.482;9.862;2022-11-15T05:06:05;52.00;43.00;28.00
23240;PMS7003;11789;53.482;9.862;2022-11-15T05:08:32;57.67;48.67;28.00
23240;PMS7003;11789;53.482;9.862;2022-11-15T05:10:57;54.67;47.00;27.00
23240;PMS7003;11789;53.482;9.862;2022-11-15T05:13:23;57.67;45.33;28.00
23240;PMS7003;11789;53.482;9.862;2022-11-15T05:15:48;56.33;44.33;27.33
23240;PMS7003;11789;53.482;9.862;2022-11-15T05:18:14;58.00;47.67;27.33
23240;PMS7003;11789;53.482;9.862;2022-11-15T05:20:39;57.67;45.33;27.00
23240;PMS7003;11789;53.482;9.862;2022-11-15T05:23:05;60.67;47.00;27.00
23240;PMS7003;11789;53.482;9.862;2022-11-15T05:25:30;58.33;46.00;28.00
23240;PMS7003;11789;53.482;9.862;2022-11-15T05:27:56;52.33;41.00;25.67
23240;PMS7003;11789;53.482;9.862;2022-11-15T05:30:21;57.00;46.00;27.67
23240;PMS7003;11789;53.482;9.862;2022-11-15T05:32:47;58.00;43.67;27.33
23240;PMS7003;11789;53.482;9.862;2022-11-15T05:35:15;65.00;49.67;30.00
23240;PMS7003;11789;53.482;9.862;2022-11-15T05:37:45;55.67;44.67;27.67
23240;PMS7003;11789;53.482;9.862;2022-11-15T05:40:11;52.33;42.00;23.00
23240;PMS7003;11789;53.482;9.862;2022-11-15T05:42:37;55.67;45.00;28.00
23240;PMS7003;11789;53.482;9.862;2022-11-15T05:45:03;57.00;45.33;27.33
23240;PMS7003;11789;53.482;9.862;2022-11-15T05:47:31;58.00;44.33;26.33
23240;PMS7003;11789;53.482;9.862;2022-11-15T05:50:00;58.00;49.33;28.00
23240;PMS7003;11789;53.482;9.862;2022-11-15T05:52:27;52.67;43.00;26.33
23240;PMS7003;11789;53.482;9.862;2022-11-15T05:54:56;54.00;45.00;26.33
23240;PMS7003;11789;53.482;9.862;2022-11-15T05:57:24;57.67;46.67;26.33
23240;PMS7003;11789;53.482;9.862;2022-11-15T05:59:59;55.67;45.67;26.00
23240;PMS7003;11789;53.482;9.862;2022-11-15T06:02:25;53.33;43.67;25.33
23240;PMS7003;11789;53.482;9.862;2022-11-15T06:04:51;53.33;44.00;25.33
23240;PMS7003;11789;53.482;9.862;2022-11-15T06:07:16;53.00;41.00;24.33
23240;PMS7003;11789;53.482;9.862;2022-11-15T06:09:42;52.67;43.00;26.67
23240;PMS7003;11789;53.482;9.862;2022-11-15T06:12:07;53.67;44.67;26.33
23240;PMS7003;11789;53.482;9.862;2022-11-15T06:14:33;43.33;40.00;25.00
23240;PMS7003;11789;53.482;9.862;2022-11-15T06:16:58;47.00;39.67;25.00
23240;PMS7003;11789;53.482;9.862;2022-11-15T06:19:24;53.33;43.67;25.33
23240;PMS7003;11789;53.482;9.862;2022-11-15T06:21:49;52.33;43.00;25.00
23240;PMS7003;11789;53.482;9.862;2022-11-15T06:24:15;51.33;42.33;24.67
23240;PMS7003;11789;53.482;9.862;2022-11-15T06:26:40;52.33;44.00;26.33
23240;PMS7003;11789;53.482;9.862;2022-11-15T06:29:06;61.00;46.67;26.33
23240;PMS7003;11789;53.482;9.862;2022-11-15T06:31:32;50.00;41.67;25.00
23240;PMS7003;11789;53.482;9.862;2022-11-15T06:33:58;46.00;40.33;24.67
23240;PMS7003;11789;53.482;9.862;2022-11-15T06:36:24;46.33;39.00;25.00
23240;PMS7003;11789;53.482;9.862;2022-11-15T06:38:49;52.33;44.00;24.33
23240;PMS7003;11789;53.482;9.862;2022-11-15T06:41:15;52.67;41.67;25.33
23240;PMS7003;11789;53.482;9.862;2022-11-15T06:43:41;54.00;41.00;26.33
23240;PMS7003;11789;53.482;9.862;2022-11-15T06:46:07;52.33;44.00;26.33
23240;PMS7003;11789;53.482;9.862;2022-11-15T06:48:33;55.00;43.33;26.67
23240;PMS7003;11789;53.482;9.862;2022-11-15T06:50:59;52.00;40.33;25.00
23240;PMS7003;11789;53.482;9.862;2022-11-15T06:53:27;53.33;40.67;25.00
23240;PMS7003;11789;53.482;9.862;2022-11-15T06:55:53;49.67;41.00;23.67
23240;PMS7003;11789;53.482;9.862;2022-11-15T06:58:23;51.67;41.00;24.33
23240;PMS7003;11789;53.482;9.862;2022-11-15T07:00:48;52.00;40.00;25.00
23240;PMS7003;11789;53.482;9.862;2022-11-15T07:03:23;41.67;37.33;24.67
23240;PMS7003;11789;53.482;9.862;2022-11-15T07:05:55;52.00;43.67;26.00
23240;PMS7003;11789;53.482;9.862;2022-11-15T07:08:22;53.67;40.33;25.00
23240;PMS7003;11789;53.482;9.862;2022-11-15T07:10:48;49.00;38.67;24.67
23240;PMS7003;11789;53.482;9.862;2022-11-15T07:13:14;45.00;41.00;26.00
23240;PMS7003;11789;53.482;9.862;2022-11-15T07:15:40;49.00;40.00;23.33
23240;PMS7003;11789;53.482;9.862;2022-11-15T07:18:24;51.33;40.33;24.33
23240;PMS7003;11789;53.482;9.862;2022-11-15T07:20:49;30.67;30.67;14.33
23240;PMS7003;11789;53.482;9.862;2022-11-15T07:23:18;49.67;39.67;25.00
23240;PMS7003;11789;53.482;9.862;2022-11-15T07:25:43;48.00;41.00;24.33
23240;PMS7003;11789;53.482;9.862;2022-11-15T07:28:08;50.00;40.33;25.00
23240;PMS7003;11789;53.482;9.862;2022-11-15T07:30:34;41.67;38.00;24.33
23240;PMS7003;11789;53.482;9.862;2022-11-15T07:33:00;50.33;40.00;23.67
23240;PMS7003;11789;53.482;9.862;2022-11-15T07:35:26;46.00;39.00;24.00
23240;PMS7003;11789;53.482;9.862;2022-11-15T07:37:56;52.33;41.33;25.00
23240;PMS7003;11789;53.482;9.862;2022-11-15T07:40:25;43.00;37.33;25.00
23240;PMS7003;11789;53.482;9.862;2022-11-15T07:42:59;48.33;38.00;25.00
23240;PMS7003;11789;53.482;9.862;2022-11-15T07:45:28;51.33;41.67;25.33
23240;PMS7003;11789;53.482;9.862;2022-11-15T07:47:54;51.00;40.67;24.33
23240;PMS7003;11789;53.482;9.862;2022-11-15T07:50:21;40.33;36.00;22.67
23240;PMS7003;11789;53.482;9.862;2022-11-15T07:52:56;53.67;42.67;25.00
23240;PMS7003;11789;53.482;9.862;2022-11-15T07:55:24;30.00;21.33;5.67
23240;PMS7003;11789;53.482;9.862;2022-11-15T07:57:50;53.33;44.33;26.67
23240;PMS7003;11789;53.482;9.862;2022-11-15T08:00:16;49.00;38.33;20.33
23240;PMS7003;11789;53.482;9.862;2022-11-15T08:02:42;50.00;40.00;25.00
23240;PMS7003;11789;53.482;9.862;2022-11-15T08:05:08;47.00;39.33;24.33
23240;PMS7003;11789;53.482;9.862;2022-11-15T08:07:33;48.33;38.67;26.00
23240;PMS7003;11789;53.482;9.862;2022-11-15T08:09:59;41.33;36.00;22.33
23240;PMS7003;11789;53.482;9.862;2022-11-15T08:12:29;51.67;40.67;24.33
23240;PMS7003;11789;53.482;9.862;2022-11-15T08:14:55;50.00;40.00;24.33
23240;PMS7003;11789;53.482;9.862;2022-11-15T08:17:22;46.67;38.00;22.67
23240;PMS7003;11789;53.482;9.862;2022-11-15T08:19:48;49.67;40.67;24.00
23240;PMS7003;11789;53.482;9.862;2022-11-15T08:22:13;46.00;38.33;22.00
23240;PMS7003;11789;53.482;9.862;2022-11-15T08:24:39;43.33;37.33;24.00
23240;PMS7003;11789;53.482;9.862;2022-11-15T08:27:04;51.33;40.33;25.67
23240;PMS7003;11789;53.482;9.862;2022-11-15T08:29:40;47.67;40.00;24.00
23240;PMS7003;11789;53.482;9.862;2022-11-15T08:32:09;45.00;39.00;24.33
23240;PMS7003;11789;53.482;9.862;2022-11-15T08:34:36;47.75;40.00;23.25
23240;PMS7003;11789;53.482;9.862;2022-11-15T08:37:02;47.67;39.33;24.33
23240;PMS7003;11789;53.482;9.862;2022-11-15T08:39:27;42.33;35.67;24.00
23240;PMS7003;11789;53.482;9.862;2022-11-15T08:41:53;47.00;38.33;25.00
23240;PMS7003;11789;53.482;9.862;2022-11-15T08:44:18;41.75;37.25;24.00
23240;PMS7003;11789;53.482;9.862;2022-11-15T08:46:47;53.00;40.33;24.67
23240;PMS7003;11789;53.482;9.862;2022-11-15T08:49:12;50.33;41.33;24.33
23240;PMS7003;11789;53.482;9.862;2022-11-15T08:51:38;50.33;40.67;26.00
23240;PMS7003;11789;53.482;9.862;2022-11-15T08:54:04;47.67;39.67;23.33
23240;PMS7003;11789;53.482;9.862;2022-11-15T08:56:29;43.75;37.75;23.25
23240;PMS7003;11789;53.482;9.862;2022-11-15T08:58:55;47.75;38.25;24.00
23240;PMS7003;11789;53.482;9.862;2022-11-15T09:01:20;41.50;34.25;23.00
23240;PMS7003;11789;53.482;9.862;2022-11-15T09:03:47;36.75;34.50;23.00
23240;PMS7003;11789;53.482;9.862;2022-11-15T09:06:13;39.50;31.25;21.25
23240;PMS7003;11789;53.482;9.862;2022-11-15T09:08:38;41.25;34.00;22.25
23240;PMS7003;11789;53.482;9.862;2022-11-15T09:11:05;40.50;35.00;22.75
23240;PMS7003;11789;53.482;9.862;2022-11-15T09:13:32;36.00;34.00;23.00
23240;PMS7003;11789;53.482;9.862;2022-11-15T09:15:58;39.50;34.50;21.00
23240;PMS7003;11789;53.482;9.862;2022-11-15T09:18:24;48.00;36.50;22.25
23240;PMS7003;11789;53.482;9.862;2022-11-15T09:20:50;36.00;26.00;20.50
23240;PMS7003;11789;53.482;9.862;2022-11-15T09:23:16;39.25;35.00;22.00
23240;PMS7003;11789;53.482;9.862;2022-11-15T09:25:47;44.50;36.75;23.00
23240;PMS7003;11789;53.482;9.862;2022-11-15T09:28:13;39.75;35.00;21.25
23240;PMS7003;11789;53.482;9.862;2022-11-15T09:30:38;39.75;32.50;19.00
23240;PMS7003;11789;53.482;9.862;2022-11-15T09:33:08;37.75;34.25;21.00
23240;PMS7003;11789;53.482;9.862;2022-11-15T09:35:34;34.75;32.00;21.00
23240;PMS7003;11789;53.482;9.862;2022-11-15T09:38:00;41.75;35.75;22.25
23240;PMS7003;11789;53.482;9.862;2022-11-15T09:40:25;38.50;35.00;22.25
23240;PMS7003;11789;53.482;9.862;2022-11-15T09:43:04;35.50;32.00;21.00
23240;PMS7003;11789;53.482;9.862;2022-11-15T09:51:08;38.25;33.25;21.00
23240;PMS7003;11789;53.482;9.862;2022-11-15T09:56:35;37.00;34.25;20.25
23240;PMS7003;11789;53.482;9.862;2022-11-15T10:04:29;38.25;34.50;21.50
23240;PMS7003;11789;53.482;9.862;2022-11-15T10:07:06;39.25;35.75;23.00
23240;PMS7003;11789;53.482;9.862;2022-11-15T10:09:41;35.25;30.00;21.00
23240;PMS7003;11789;53.482;9.862;2022-11-15T10:12:08;38.50;34.75;21.75
23240;PMS7003;11789;53.482;9.862;2022-11-15T10:14:37;40.25;35.25;23.25
23240;PMS7003;11789;53.482;9.862;2022-11-15T10:24:43;44.75;37.50;21.25
23240;PMS7003;11789;53.482;9.862;2022-11-15T10:27:16;43.00;37.00;23.50
23240;PMS7003;11789;53.482;9.862;2022-11-15T10:29:47;38.75;34.75;22.75
23240;PMS7003;11789;53.482;9.862;2022-11-15T10:32:15;46.25;36.75;23.50
23240;PMS7003;11789;53.482;9.862;2022-11-15T10:34:43;40.00;35.50;22.50
23240;PMS7003;11789;53.482;9.862;2022-11-15T10:37:08;38.25;35.50;23.00
23240;PMS7003;11789;53.482;9.862;2022-11-15T10:39:33;44.00;36.00;23.00
23240;PMS7003;11789;53.482;9.862;2022-11-15T10:42:14;44.25;38.00;23.50
23240;PMS7003;11789;53.482;9.862;2022-11-15T10:44:42;47.50;37.50;23.25
23240;PMS7003;11789;53.482;9.862;2022-11-15T10:47:28;42.50;37.25;24.00
23240;PMS7003;11789;53.482;9.862;2022-11-15T10:49:57;45.50;36.50;23.25
23240;PMS7003;11789;53.482;9.862;2022-11-15T10:57:47;37.50;34.00;21.00
23240;PMS7003;11789;53.482;9.862;2022-11-15T11:00:34;47.75;37.00;23.25
23240;PMS7003;11789;53.482;9.862;2022-11-15T11:03:05;43.75;36.75;23.25
23240;PMS7003;11789;53.482;9.862;2022-11-15T11:05:46;43.25;35.50;21.00
23240;PMS7003;11789;53.482;9.862;2022-11-15T11:10:38;39.00;32.00;21.25
23240;PMS7003;11789;53.482;9.862;2022-11-15T11:13:14;41.25;35.75;21.00
23240;PMS7003;11789;53.482;9.862;2022-11-15T11:15:46;39.75;36.50;22.25
23240;PMS7003;11789;53.482;9.862;2022-11-15T11:19:19;40.50;35.25;21.25
23240;PMS7003;11789;53.482;9.862;2022-11-15T11:26:53;46.00;36.25;22.00
23240;PMS7003;11789;53.482;9.862;2022-11-15T11:35:14;36.00;33.75;22.00
23240;PMS7003;11789;53.482;9.862;2022-11-15T11:37:54;38.25;33.50;21.25
23240;PMS7003;11789;53.482;9.862;2022-11-15T11:43:06;38.00;31.00;20.50
23240;PMS7003;11789;53.482;9.862;2022-11-15T11:48:41;36.25;33.75;21.00
23240;PMS7003;11789;53.482;9.862;2022-11-15T11:51:13;38.00;34.25;23.00
23240;PMS7003;11789;53.482;9.862;2022-11-15T11:53:42;37.75;32.00;22.00
23240;PMS7003;11789;53.482;9.862;2022-11-15T11:58:54;28.00;28.00;18.25
23240;PMS7003;11789;53.482;9.862;2022-11-15T12:01:36;41.25;34.25;21.25
23240;PMS7003;11789;53.482;9.862;2022-11-15T12:04:19;29.00;29.00;20.50
23240;PMS7003;11789;53.482;9.862;2022-11-15T12:06:50;36.75;32.75;22.50
23240;PMS7003;11789;53.482;9.862;2022-11-15T12:17:08;33.25;30.50;20.25
23240;PMS7003;11789;53.482;9.862;2022-11-15T12:19:35;40.25;33.50;20.75
23240;PMS7003;11789;53.482;9.862;2022-11-15T12:22:03;28.75;27.50;18.50
23240;PMS7003;11789;53.482;9.862;2022-11-15T12:24:42;38.00;33.75;21.50
23240;PMS7003;11789;53.482;9.862;2022-11-15T12:27:17;33.25;30.50;20.50
23240;PMS7003;11789;53.482;9.862;2022-11-15T12:29:49;34.75;29.50;18.50
23240;PMS7003;11789;53.482;9.862;2022-11-15T12:32:28;28.00;27.00;17.00
23240;PMS7003;11789;53.482;9.862;2022-11-15T12:35:05;23.00;23.00;15.25
23240;PMS7003;11789;53.482;9.862;2022-11-15T12:37:47;31.50;29.25;17.00
23240;PMS7003;11789;53.482;9.862;2022-11-15T12:45:34;27.75;25.00;16.25
23240;PMS7003;11789;53.482;9.862;2022-11-15T12:51:03;64.25;51.00;32.00
23240;PMS7003;11789;53.482;9.862;2022-11-15T12:53:32;37.00;32.25;19.50
23240;PMS7003;11789;53.482;9.862;2022-11-15T13:01:57;29.25;25.75;17.00
23240;PMS7003;11789;53.482;9.862;2022-11-15T13:07:04;19.25;19.25;13.50
23240;PMS7003;11789;53.482;9.862;2022-11-15T13:17:03;24.75;23.50;15.00
23240;PMS7003;11789;53.482;9.862;2022-11-15T13:19:42;25.50;23.00;15.75
23240;PMS7003;11789;53.482;9.862;2022-11-15T13:22:09;21.50;21.50;15.00
23240;PMS7003;11789;53.482;9.862;2022-11-15T13:24:53;24.25;23.25;14.50
23240;PMS7003;11789;53.482;9.862;2022-11-15T13:27:19;26.00;23.25;17.00
23240;PMS7003;11789;53.482;9.862;2022-11-15T13:29:45;25.50;25.25;17.50
23240;PMS7003;11789;53.482;9.862;2022-11-15T13:32:12;26.50;24.25;15.25
23240;PMS7003;11789;53.482;9.862;2022-11-15T13:34:56;31.00;27.75;19.00
23240;PMS7003;11789;53.482;9.862;2022-11-15T13:39:50;29.50;26.00;18.50
23240;PMS7003;11789;53.482;9.862;2022-11-15T13:42:17;32.50;30.25;20.00
23240;PMS7003;11789;53.482;9.862;2022-11-15T13:44:57;32.75;30.25;20.00
23240;PMS7003;11789;53.482;9.862;2022-11-15T13:47:27;32.00;29.25;19.00
23240;PMS7003;11789;53.482;9.862;2022-11-15T13:49:57;37.00;32.25;20.00
23240;PMS7003;11789;53.482;9.862;2022-11-15T13:52:25;31.25;28.00;18.50
23240;PMS7003;11789;53.482;9.862;2022-11-15T13:55:02;30.75;29.50;19.00
23240;PMS7003;11789;53.482;9.862;2022-11-15T13:58:08;29.75;27.25;17.25
23240;PMS7003;11789;53.482;9.862;2022-11-15T14:00:39;29.75;27.75;20.25
23240;PMS7003;11789;53.482;9.862;2022-11-15T14:05:39;29.00;27.00;18.75
23240;PMS7003;11789;53.482;9.862;2022-11-15T14:08:22;28.25;24.50;16.25
23240;PMS7003;11789;53.482;9.862;2022-11-15T14:10:49;30.75;26.50;18.25
23240;PMS7003;11789;53.482;9.862;2022-11-15T14:19:05;30.00;27.25;17.25
23240;PMS7003;11789;53.482;9.862;2022-11-15T14:22:06;32.25;28.75;19.00
23240;PMS7003;11789;53.482;9.862;2022-11-15T14:24:33;27.50;27.50;18.75
23240;PMS7003;11789;53.482;9.862;2022-11-15T14:29:51;27.00;26.00;17.00
23240;PMS7003;11789;53.482;9.862;2022-11-15T14:34:44;27.25;25.00;15.00
23240;PMS7003;11789;53.482;9.862;2022-11-15T14:37:18;32.75;27.50;18.50
23240;PMS7003;11789;53.482;9.862;2022-11-15T14:39:46;30.25;27.50;18.00
23240;PMS7003;11789;53.482;9.862;2022-11-15T14:42:12;28.25;26.75;17.00
23240;PMS7003;11789;53.482;9.862;2022-11-15T14:44:37;30.50;26.75;18.50
23240;PMS7003;11789;53.482;9.862;2022-11-15T14:47:02;24.50;24.50;16.25
23240;PMS7003;11789;53.482;9.862;2022-11-15T14:49:28;30.25;28.00;16.50
23240;PMS7003;11789;53.482;9.862;2022-11-15T14:51:53;25.50;23.50;15.75
23240;PMS7003;11789;53.482;9.862;2022-11-15T14:54:19;28.25;26.75;17.00
23240;PMS7003;11789;53.482;9.862;2022-11-15T14:56:44;30.25;27.75;17.25
23240;PMS7003;11789;53.482;9.862;2022-11-15T14:59:10;29.00;23.50;16.00
23240;PMS7003;11789;53.482;9.862;2022-11-15T15:01:35;26.00;24.00;15.50
23240;PMS7003;11789;53.482;9.862;2022-11-15T15:04:01;24.25;22.75;15.00
23240;PMS7003;11789;53.482;9.862;2022-11-15T15:06:26;27.50;23.75;15.25
23240;PMS7003;11789;53.482;9.862;2022-11-15T15:08:52;26.00;23.00;15.50
23240;PMS7003;11789;53.482;9.862;2022-11-15T15:11:21;26.75;23.75;16.50
23240;PMS7003;11789;53.482;9.862;2022-11-15T15:13:52;30.75;25.75;15.75
23240;PMS7003;11789;53.482;9.862;2022-11-15T15:16:18;28.75;27.50;16.25
23240;PMS7003;11789;53.482;9.862;2022-11-15T15:18:44;27.00;22.75;15.25
23240;PMS7003;11789;53.482;9.862;2022-11-15T15:21:28;24.00;22.50;16.25
23240;PMS7003;11789;53.482;9.862;2022-11-15T15:23:56;28.50;26.25;17.00
23240;PMS7003;11789;53.482;9.862;2022-11-15T15:26:22;27.00;25.00;15.50
23240;PMS7003;11789;53.482;9.862;2022-11-15T15:28:49;29.25;28.25;18.25
23240;PMS7003;11789;53.482;9.862;2022-11-15T15:31:16;34.25;28.75;19.00
23240;PMS7003;11789;53.482;9.862;2022-11-15T15:33:41;32.25;30.50;19.25
23240;PMS7003;11789;53.482;9.862;2022-11-15T15:36:13;33.25;31.00;21.00
23240;PMS7003;11789;53.482;9.862;2022-11-15T15:38:42;38.25;33.75;22.50
23240;PMS7003;11789;53.482;9.862;2022-11-15T15:41:11;39.75;33.50;22.25
23240;PMS7003;11789;53.482;9.862;2022-11-15T15:43:37;33.00;32.00;21.00
23240;PMS7003;11789;53.482;9.862;2022-11-15T15:46:02;31.25;31.00;20.00
23240;PMS7003;11789;53.482;9.862;2022-11-15T15:48:28;40.50;34.50;23.50
23240;PMS7003;11789;53.482;9.862;2022-11-15T15:50:53;40.75;32.50;20.50
23240;PMS7003;11789;53.482;9.862;2022-11-15T15:53:19;35.25;32.00;22.00
23240;PMS7003;11789;53.482;9.862;2022-11-15T15:55:44;34.75;32.75;22.25
23240;PMS7003;11789;53.482;9.862;2022-11-15T15:58:10;44.25;35.75;21.50
23240;PMS7003;11789;53.482;9.862;2022-11-15T16:00:36;38.50;33.50;21.50